Date,TemperatureHighF,TemperatureAvgF,TemperatureLowF,DewpointHighF,DewpointAvgF,DewpointLowF,HumidityHigh,HumidityAvg,HumidityLow,PressureMaxIn,PressureMinIn,WindSpeedMaxMPH,WindSpeedAvgMPH,GustSpeedMaxMPH,PrecipitationSumIn
2013-10-1,69,67,65,35,35,34,31,30,28,0.00,40.00,6,4,11,0.00
2013-10-2,82,66,52,42,36,31,63,36,16,0.00,40.00,6,3,13,0.00
2013-10-3,81,64,50,43,36,31,68,39,17,0.00,40.00,5,3,13,0.00
2013-10-4,79,64,52,44,34,26,65,37,14,0.00,40.00,4,2,16,0.00
2013-10-5,75,59,48,35,27,19,54,31,18,0.00,40.00,5,3,9,0.00
2013-10-6,78,62,47,26,20,14,31,21,11,0.00,40.00,5,3,14,0.00
2013-10-7,83,68,52,36,25,15,31,20,13,0.00,40.00,7,4,14,0.00
2013-10-8,79,66,54,37,30,22,50,28,17,0.00,40.00,5,3,17,0.00
2013-10-9,74,65,55,43,33,26,47,31,19,0.00,40.00,8,5,24,0.00
2013-10-10,66,56,42,42,35,30,79,47,28,0.00,40.00,6,4,30,0.00
2013-10-11,72,52,39,40,35,25,89,57,23,0.00,40.00,4,2,9,0.00
2013-10-12,76,57,44,40,30,-100,66,41,14,0.00,40.00,5,3,16,0.00
2013-10-13,79,66,57,45,39,33,57,39,20,0.00,40.00,6,4,16,0.00
2013-10-14,73,62,55,51,46,39,82,56,36,0.00,40.00,5,3,16,0.00
2013-10-15,77,60,48,44,40,28,80,51,25,0.00,40.00,5,3,11,0.00
2013-10-16,74,55,42,29,21,7,52,31,8,0.00,40.00,5,3,12,0.00
2013-10-17,75,55,40,23,15,10,35,22,10,0.00,40.00,4,3,9,0.00
2013-10-18,74,56,42,22,18,13,36,23,12,0.00,40.00,5,3,9,0.00
2013-10-19,76,58,45,25,15,-100,35,20,9,0.00,40.00,5,3,11,0.00
2013-10-20,76,60,47,28,14,7,31,18,7,0.00,40.00,5,3,14,0.00
2013-10-21,77,61,47,25,14,7,27,17,8,0.00,40.00,5,3,10,0.00
2013-10-22,76,62,47,25,16,11,30,18,10,0.00,40.00,5,4,16,0.00
2013-10-23,79,66,52,37,26,20,35,23,15,0.00,40.00,7,4,14,0.00
2013-10-24,80,64,51,38,29,24,46,29,13,0.00,40.00,5,3,15,0.00
2013-10-25,78,61,49,31,26,21,42,29,12,0.00,40.00,4,3,10,0.00
2013-10-26,77,61,49,29,21,-100,37,24,13,0.00,40.00,5,3,11,0.00
2013-10-27,79,65,52,32,26,20,47,25,12,0.00,40.00,7,4,16,0.00
2013-10-28,71,61,52,28,21,-100,33,23,14,0.00,40.00,7,5,23,0.00
2013-10-29,71,60,54,35,26,21,49,28,16,0.00,40.00,7,5,21,0.00
2013-10-30,65,54,39,39,31,22,57,43,23,0.00,40.00,6,4,24,0.00
2013-10-31,68,46,34,29,22,9,69,43,18,0.00,40.00,4,2,8,0.00